sensor_id;sensor_type;location;lat;lon;timestamp;pressure;altitude;pressure_sealevel;temperature;humidity
67980;BME280;54760;47.490;19.030;2023-04-01T00:01:57;98713.00;;;11.20;77.10
67980;BME280;54760;47.490;19.030;2023-04-01T00:04:23;98715.91;;;11.17;77.61
67980;BME280;54760;47.490;19.030;2023-04-01T00:06:48;98710.56;;;11.04;78.61
67980;BME280;54760;47.490;19.030;2023-04-01T00:09:14;98720.25;;;10.87;80.08
67980;BME280;54760;47.490;19.030;2023-04-01T00:11:40;98721.97;;;10.94;80.26
67980;BME280;54760;47.490;19.030;2023-04-01T00:14:06;98730.34;;;11.08;79.79
67980;BME280;54760;47.490;19.030;2023-04-01T00:16:32;98718.97;;;10.61;82.96
67980;BME280;54760;47.490;19.030;2023-04-01T00:18:58;98717.38;;;10.41;84.36
67980;BME280;54760;47.490;19.030;2023-04-01T00:21:23;98712.37;;;10.89;81.54
67980;BME280;54760;47.490;19.030;2023-04-01T00:23:51;98711.19;;;10.99;80.67
67980;BME280;54760;47.490;19.030;2023-04-01T00:26:17;98712.22;;;11.02;80.29
67980;BME280;54760;47.490;19.030;2023-04-01T00:28:45;98716.34;;;11.24;79.22
67980;BME280;54760;47.490;19.030;2023-04-01T00:31:11;98718.63;;;11.35;79.06
67980;BME280;54760;47.490;19.030;2023-04-01T00:33:37;98713.59;;;11.24;78.53
67980;BME280;54760;47.490;19.030;2023-04-01T00:36:11;98711.19;;;11.36;78.21
67980;BME280;54760;47.490;19.030;2023-04-01T00:38:38;98703.84;;;10.96;80.21
67980;BME280;54760;47.490;19.030;2023-04-01T00:41:05;98704.19;;;11.07;79.61
67980;BME280;54760;47.490;19.030;2023-04-01T00:43:31;98701.59;;;11.04;79.51
67980;BME280;54760;47.490;19.030;2023-04-01T00:45:57;98698.09;;;10.94;79.62
67980;BME280;54760;47.490;19.030;2023-04-01T00:48:28;98688.22;;;11.42;77.03
67980;BME280;54760;47.490;19.030;2023-04-01T00:50:59;98697.50;;;11.08;79.64
67980;BME280;54760;47.490;19.030;2023-04-01T00:53:28;98700.13;;;10.63;83.17
67980;BME280;54760;47.490;19.030;2023-04-01T00:56:05;98701.09;;;10.38;84.72
67980;BME280;54760;47.490;19.030;2023-04-01T00:58:36;98701.88;;;10.38;85.98
67980;BME280;54760;47.490;19.030;2023-04-01T01:01:03;98692.13;;;10.86;82.61
67980;BME280;54760;47.490;19.030;2023-04-01T01:03:29;98690.72;;;10.64;83.13
67980;BME280;54760;47.490;19.030;2023-04-01T01:06:09;98694.75;;;11.08;80.36
67980;BME280;54760;47.490;19.030;2023-04-01T01:11:37;98681.50;;;10.89;77.76
67980;BME280;54760;47.490;19.030;2023-04-01T01:14:15;98691.84;;;11.03;76.48
67980;BME280;54760;47.490;19.030;2023-04-01T01:16:50;98694.28;;;11.01;76.17
67980;BME280;54760;47.490;19.030;2023-04-01T01:31:25;98685.44;;;10.78;76.86
67980;BME280;54760;47.490;19.030;2023-04-01T01:36:33;98677.69;;;10.95;75.38
67980;BME280;54760;47.490;19.030;2023-04-01T01:39:05;98675.25;;;10.97;75.69
67980;BME280;54760;47.490;19.030;2023-04-01T01:41:34;98685.88;;;10.86;76.10
67980;BME280;54760;47.490;19.030;2023-04-01T01:44:03;98680.22;;;10.71;76.92
67980;BME280;54760;47.490;19.030;2023-04-01T01:46:30;98682.25;;;10.98;75.92
67980;BME280;54760;47.490;19.030;2023-04-01T01:48:56;98677.22;;;10.97;75.95
67980;BME280;54760;47.490;19.030;2023-04-01T01:51:26;98680.72;;;10.97;75.95
67980;BME280;54760;47.490;19.030;2023-04-01T01:53:52;98681.94;;;10.87;75.48
67980;BME280;54760;47.490;19.030;2023-04-01T01:56:21;98679.66;;;10.85;75.61
67980;BME280;54760;47.490;19.030;2023-04-01T01:58:50;98678.31;;;10.99;74.51
67980;BME280;54760;47.490;19.030;2023-04-01T02:01:21;98685.59;;;11.02;74.06
67980;BME280;54760;47.490;19.030;2023-04-01T02:03:50;98680.72;;;10.97;74.28
67980;BME280;54760;47.490;19.030;2023-04-01T02:06:18;98683.19;;;11.22;73.07
67980;BME280;54760;47.490;19.030;2023-04-01T02:08:54;98681.34;;;11.01;73.73
67980;BME280;54760;47.490;19.030;2023-04-01T02:11:25;98668.41;;;11.11;73.43
67980;BME280;54760;47.490;19.030;2023-04-01T02:13:58;98684.09;;;11.10;73.12
67980;BME280;54760;47.490;19.030;2023-04-01T02:16:40;98674.22;;;11.04;73.27
67980;BME280;54760;47.490;19.030;2023-04-01T02:19:10;98680.28;;;11.08;73.59
67980;BME280;54760;47.490;19.030;2023-04-01T02:21:38;98679.97;;;11.06;73.02
67980;BME280;54760;47.490;19.030;2023-04-01T02:24:08;98678.31;;;11.26;72.56
67980;BME280;54760;47.490;19.030;2023-04-01T02:26:35;98665.06;;;11.16;72.59
67980;BME280;54760;47.490;19.030;2023-04-01T02:29:02;98668.53;;;11.62;70.99
67980;BME280;54760;47.490;19.030;2023-04-01T02:31:29;98663.66;;;11.66;70.50
67980;BME280;54760;47.490;19.030;2023-04-01T02:33:55;98666.56;;;11.44;71.29
67980;BME280;54760;47.490;19.030;2023-04-01T02:36:21;98659.41;;;11.56;71.11
67980;BME280;54760;47.490;19.030;2023-04-01T02:38:47;98669.78;;;11.43;71.29
67980;BME280;54760;47.490;19.030;2023-04-01T02:41:15;98667.78;;;11.61;70.69
67980;BME280;54760;47.490;19.030;2023-04-01T02:43:40;98659.41;;;11.74;70.21
67980;BME280;54760;47.490;19.030;2023-04-01T02:46:05;98660.03;;;11.51;71.04
67980;BME280;54760;47.490;19.030;2023-04-01T02:48:31;98655.28;;;11.69;70.55
67980;BME280;54760;47.490;19.030;2023-04-01T02:50:56;98658.63;;;11.73;69.89
67980;BME280;54760;47.490;19.030;2023-04-01T02:53:22;98661.41;;;11.46;70.90
67980;BME280;54760;47.490;19.030;2023-04-01T02:55:47;98668.53;;;11.62;69.74
67980;BME280;54760;47.490;19.030;2023-04-01T02:58:15;98672.81;;;11.45;69.65
67980;BME280;54760;47.490;19.030;2023-04-01T03:00:41;98663.97;;;11.77;68.87
67980;BME280;54760;47.490;19.030;2023-04-01T03:03:06;98670.38;;;11.74;68.79
67980;BME280;54760;47.490;19.030;2023-04-01T03:05:32;98673.16;;;11.38;70.09
67980;BME280;54760;47.490;19.030;2023-04-01T03:07:57;98672.53;;;11.43;69.84
67980;BME280;54760;47.490;19.030;2023-04-01T03:10:23;98675.56;;;11.08;71.38
67980;BME280;54760;47.490;19.030;2023-04-01T03:12:48;98667.06;;;11.43;70.36
67980;BME280;54760;47.490;19.030;2023-04-01T03:15:14;98670.09;;;11.26;71.09
67980;BME280;54760;47.490;19.030;2023-04-01T03:17:41;98661.59;;;11.34;70.95
67980;BME280;54760;47.490;19.030;2023-04-01T03:20:07;98659.47;;;11.28;71.62
67980;BME280;54760;47.490;19.030;2023-04-01T03:22:34;98659.59;;;11.16;72.44
67980;BME280;54760;47.490;19.030;2023-04-01T03:25:00;98659.13;;;11.36;70.71
67980;BME280;54760;47.490;19.030;2023-04-01T03:27:26;98668.56;;;11.07;72.07
67980;BME280;54760;47.490;19.030;2023-04-01T03:29:51;98676.19;;;11.12;72.52
67980;BME280;54760;47.490;19.030;2023-04-01T03:32:16;98685.28;;;11.09;72.85
67980;BME280;54760;47.490;19.030;2023-04-01T03:34:42;98685.94;;;11.22;71.85
67980;BME280;54760;47.490;19.030;2023-04-01T03:37:07;98683.19;;;11.41;71.01
67980;BME280;54760;47.490;19.030;2023-04-01T03:39:33;98678.91;;;11.21;70.88
67980;BME280;54760;47.490;19.030;2023-04-01T03:41:58;98680.44;;;11.04;71.78
67980;BME280;54760;47.490;19.030;2023-04-01T03:44:24;98689.81;;;10.85;72.35
67980;BME280;54760;47.490;19.030;2023-04-01T03:46:50;98686.81;;;10.83;72.46
67980;BME280;54760;47.490;19.030;2023-04-01T03:49:15;98689.72;;;10.89;72.31
67980;BME280;54760;47.490;19.030;2023-04-01T03:51:42;98691.19;;;10.71;73.07
67980;BME280;54760;47.490;19.030;2023-04-01T03:54:08;98689.94;;;10.63;73.78
67980;BME280;54760;47.490;19.030;2023-04-01T03:56:33;98692.50;;;10.58;74.25
67980;BME280;54760;47.490;19.030;2023-04-01T03:59:03;98689.25;;;10.41;74.54
67980;BME280;54760;47.490;19.030;2023-04-01T04:01:29;98689.56;;;10.34;75.02
67980;BME280;54760;47.490;19.030;2023-04-01T04:03:55;98689.91;;;10.45;74.51
67980;BME280;54760;47.490;19.030;2023-04-01T04:06:21;98696.34;;;10.69;73.33
67980;BME280;54760;47.490;19.030;2023-04-01T04:08:47;98691.59;;;10.61;73.55
67980;BME280;54760;47.490;19.030;2023-04-01T04:11:13;98691.66;;;10.79;72.62
67980;BME280;54760;47.490;19.030;2023-04-01T04:13:38;98682.41;;;10.36;74.00
67980;BME280;54760;47.490;19.030;2023-04-01T04:16:04;98688.28;;;10.66;73.35
67980;BME280;54760;47.490;19.030;2023-04-01T04:18:30;98698.75;;;10.58;73.68
67980;BME280;54760;47.490;19.030;2023-04-01T04:20:55;98691.13;;;10.53;73.76
67980;BME280;54760;47.490;19.030;2023-04-01T04:23:21;98685.09;;;10.76;72.55
67980;BME280;54760;47.490;19.030;2023-04-01T04:25:58;98689.19;;;10.63;72.66
67980;BME280;54760;47.490;19.030;2023-04-01T04:28:25;98694.19;;;10.55;72.79
67980;BME280;54760;47.490;19.030;2023-04-01T04:30:50;98693.09;;;10.43;73.44
67980;BME280;54760;47.490;19.030;2023-04-01T04:33:16;98696.13;;;10.46;73.28
67980;BME280;54760;47.490;19.030;2023-04-01T04:35:41;98679.56;;;10.49;72.92
67980;BME280;54760;47.490;19.030;2023-04-01T04:38:07;98689.19;;;10.63;72.09
67980;BME280;54760;47.490;19.030;2023-04-01T04:40:32;98685.84;;;10.68;71.86
67980;BME280;54760;47.490;19.030;2023-04-01T04:42:58;98679.62;;;10.67;71.85
67980;BME280;54760;47.490;19.030;2023-04-01T04:45:23;98686.91;;;10.70;71.57
67980;BME280;54760;47.490;19.030;2023-04-01T04:47:49;98680.94;;;10.45;72.15
67980;BME280;54760;47.490;19.030;2023-04-01T04:50:14;98680.97;;;10.63;71.34
67980;BME280;54760;47.490;19.030;2023-04-01T04:52:40;98678.84;;;10.67;71.03
67980;BME280;54760;47.490;19.030;2023-04-01T04:55:05;98675.34;;;10.57;70.31
67980;BME280;54760;47.490;19.030;2023-04-01T04:57:31;98678.69;;;10.61;70.38
67980;BME280;54760;47.490;19.030;2023-04-01T04:59:56;98680.03;;;10.57;70.64
67980;BME280;54760;47.490;19.030;2023-04-01T05:02:22;98680.97;;;10.63;70.20
67980;BME280;54760;47.490;19.030;2023-04-01T05:04:47;98681.75;;;10.63;69.84
67980;BME280;54760;47.490;19.030;2023-04-01T05:07:12;98681.56;;;10.58;70.20
67980;BME280;54760;47.490;19.030;2023-04-01T05:09:38;98680.69;;;10.70;69.29
67980;BME280;54760;47.490;19.030;2023-04-01T05:12:03;98681.31;;;10.74;69.18
67980;BME280;54760;47.490;19.030;2023-04-01T05:14:29;98681.44;;;10.70;69.01
67980;BME280;54760;47.490;19.030;2023-04-01T05:16:55;98685.44;;;10.78;68.86
67980;BME280;54760;47.490;19.030;2023-04-01T05:19:20;98684.06;;;10.74;68.83
67980;BME280;54760;47.490;19.030;2023-04-01T05:21:46;98679.19;;;10.87;68.63
67980;BME280;54760;47.490;19.030;2023-04-01T05:24:11;98689.41;;;10.96;68.04
67980;BME280;54760;47.490;19.030;2023-04-01T05:26:37;98696.13;;;11.04;67.68
67980;BME280;54760;47.490;19.030;2023-04-01T05:29:05;98693.97;;;10.99;68.17
67980;BME280;54760;47.490;19.030;2023-04-01T05:31:31;98688.66;;;11.41;66.69
67980;BME280;54760;47.490;19.030;2023-04-01T05:33:56;98709.34;;;11.60;65.10
67980;BME280;54760;47.490;19.030;2023-04-01T05:36:22;98704.94;;;11.53;65.59
67980;BME280;54760;47.490;19.030;2023-04-01T05:38:47;98703.50;;;12.03;64.10
67980;BME280;54760;47.490;19.030;2023-04-01T05:41:14;98701.97;;;12.11;63.65
67980;BME280;54760;47.490;19.030;2023-04-01T05:43:40;98699.88;;;12.39;63.26
67980;BME280;54760;47.490;19.030;2023-04-01T05:46:06;98704.56;;;12.48;62.21
67980;BME280;54760;47.490;19.030;2023-04-01T05:48:35;98697.06;;;12.81;61.36
67980;BME280;54760;47.490;19.030;2023-04-01T05:51:01;98707.25;;;12.90;59.76
67980;BME280;54760;47.490;19.030;2023-04-01T05:53:26;98690.72;;;12.75;60.44
67980;BME280;54760;47.490;19.030;2023-04-01T05:55:52;98688.50;;;12.88;59.42
67980;BME280;54760;47.490;19.030;2023-04-01T05:58:17;98694.97;;;12.76;59.56
67980;BME280;54760;47.490;19.030;2023-04-01T06:00:43;98692.09;;;12.38;61.17
67980;BME280;54760;47.490;19.030;2023-04-01T06:03:09;98699.59;;;12.70;59.54
67980;BME280;54760;47.490;19.030;2023-04-01T06:05:42;98703.06;;;12.71;59.80
67980;BME280;54760;47.490;19.030;2023-04-01T06:08:16;98701.97;;;12.77;59.94
67980;BME280;54760;47.490;19.030;2023-04-01T06:18:56;98698.03;;;12.45;60.09
67980;BME280;54760;47.490;19.030;2023-04-01T06:21:33;98688.59;;;12.37;60.92
67980;BME280;54760;47.490;19.030;2023-04-01T06:27:17;98689.63;;;12.49;60.29
67980;BME280;54760;47.490;19.030;2023-04-01T06:30:12;98688.81;;;12.81;58.88
67980;BME280;54760;47.490;19.030;2023-04-01T06:37:58;98697.00;;;13.38;56.32
67980;BME280;54760;47.490;19.030;2023-04-01T06:43:20;98700.16;;;13.60;55.59
67980;BME280;54760;47.490;19.030;2023-04-01T06:51:15;98710.31;;;14.42;53.02
67980;BME280;54760;47.490;19.030;2023-04-01T06:53:56;98697.69;;;14.85;51.85
67980;BME280;54760;47.490;19.030;2023-04-01T06:56:28;98702.16;;;14.83;52.07
67980;BME280;54760;47.490;19.030;2023-04-01T06:59:15;98708.78;;;16.03;49.37
67980;BME280;54760;47.490;19.030;2023-04-01T07:01:54;98709.50;;;16.29;47.87
67980;BME280;54760;47.490;19.030;2023-04-01T07:04:34;98706.84;;;15.57;49.52
67980;BME280;54760;47.490;19.030;2023-04-01T07:07:09;98705.37;;;16.14;48.19
67980;BME280;54760;47.490;19.030;2023-04-01T07:09:41;98706.56;;;16.70;46.81
67980;BME280;54760;47.490;19.030;2023-04-01T07:12:23;98698.53;;;17.25;45.89
67980;BME280;54760;47.490;19.030;2023-04-01T07:14:55;98693.25;;;17.22;45.62
67980;BME280;54760;47.490;19.030;2023-04-01T07:17:31;98697.22;;;18.25;42.52
67980;BME280;54760;47.490;19.030;2023-04-01T07:20:02;98701.75;;;18.28;42.79
67980;BME280;54760;47.490;19.030;2023-04-01T07:22:35;98711.28;;;17.71;43.03
67980;BME280;54760;47.490;19.030;2023-04-01T07:25:12;98697.31;;;17.32;44.00
67980;BME280;54760;47.490;19.030;2023-04-01T07:27:38;98704.03;;;18.35;42.37
67980;BME280;54760;47.490;19.030;2023-04-01T07:30:12;98693.84;;;19.62;39.86
67980;BME280;54760;47.490;19.030;2023-04-01T07:32:43;98701.75;;;18.05;42.62
67980;BME280;54760;47.490;19.030;2023-04-01T07:35:38;98704.75;;;18.85;40.93
67980;BME280;54760;47.490;19.030;2023-04-01T07:56:26;98702.88;;;16.16;46.61
67980;BME280;54760;47.490;19.030;2023-04-01T07:59:04;98715.22;;;15.69;47.97
67980;BME280;54760;47.490;19.030;2023-04-01T08:01:49;98707.81;;;16.06;47.84
67980;BME280;54760;47.490;19.030;2023-04-01T08:07:12;98711.34;;;16.07;47.90
67980;BME280;54760;47.490;19.030;2023-04-01T08:09:55;98708.81;;;16.66;47.29
67980;BME280;54760;47.490;19.030;2023-04-01T08:15:52;98724.12;;;14.97;50.98
67980;BME280;54760;47.490;19.030;2023-04-01T08:18:27;98725.75;;;15.04;49.98
67980;BME280;54760;47.490;19.030;2023-04-01T08:21:00;98722.06;;;14.57;51.07
67980;BME280;54760;47.490;19.030;2023-04-01T08:23:29;98721.31;;;15.32;49.68
67980;BME280;54760;47.490;19.030;2023-04-01T08:28:30;98716.28;;;17.02;45.50
67980;BME280;54760;47.490;19.030;2023-04-01T08:31:05;98713.22;;;17.54;44.12
67980;BME280;54760;47.490;19.030;2023-04-01T08:33:32;98717.31;;;17.64;43.70
67980;BME280;54760;47.490;19.030;2023-04-01T08:38:42;98719.34;;;16.04;47.27
67980;BME280;54760;47.490;19.030;2023-04-01T08:46:43;98713.19;;;15.64;48.13
67980;BME280;54760;47.490;19.030;2023-04-01T09:00:32;98719.91;;;18.40;42.55
67980;BME280;54760;47.490;19.030;2023-04-01T09:17:24;98716.03;;;15.75;48.24
67980;BME280;54760;47.490;19.030;2023-04-01T09:28:20;98714.44;;;15.63;49.17
67980;BME280;54760;47.490;19.030;2023-04-01T09:31:18;98715.81;;;15.52;49.41
67980;BME280;54760;47.490;19.030;2023-04-01T09:37:09;98723.81;;;14.11;52.84
67980;BME280;54760;47.490;19.030;2023-04-01T09:39:47;98725.69;;;14.34;52.10
67980;BME280;54760;47.490;19.030;2023-04-01T09:45:07;98714.91;;;14.01;54.26
67980;BME280;54760;47.490;19.030;2023-04-01T09:48:15;98717.91;;;14.18;53.10
67980;BME280;54760;47.490;19.030;2023-04-01T09:50:57;98724.66;;;14.31;52.73
67980;BME280;54760;47.490;19.030;2023-04-01T10:21:52;98737.47;;;14.20;54.46
67980;BME280;54760;47.490;19.030;2023-04-01T10:27:49;98739.47;;;14.05;53.92
67980;BME280;54760;47.490;19.030;2023-04-01T10:43:01;98724.75;;;15.47;50.91
67980;BME280;54760;47.490;19.030;2023-04-01T10:45:58;98723.09;;;15.15;51.66
67980;BME280;54760;47.490;19.030;2023-04-01T10:56:40;98726.16;;;15.17;51.17
67980;BME280;54760;47.490;19.030;2023-04-01T11:02:09;98711.59;;;16.09;48.19
67980;BME280;54760;47.490;19.030;2023-04-01T11:21:46;98701.75;;;16.33;45.69
67980;BME280;54760;47.490;19.030;2023-04-01T11:29:51;98702.97;;;16.58;45.99
67980;BME280;54760;47.490;19.030;2023-04-01T11:35:47;98711.28;;;16.64;44.85
67980;BME280;54760;47.490;19.030;2023-04-01T11:41:47;98707.94;;;15.66;47.13
67980;BME280;54760;47.490;19.030;2023-04-01T11:44:20;98710.50;;;15.49;47.33
67980;BME280;54760;47.490;19.030;2023-04-01T12:00:34;98724.09;;;14.77;48.65
67980;BME280;54760;47.490;19.030;2023-04-01T12:12:03;98724.44;;;14.99;48.51
67980;BME280;54760;47.490;19.030;2023-04-01T12:14:41;98718.03;;;15.08;48.68
67980;BME280;54760;47.490;19.030;2023-04-01T12:17:32;98719.03;;;15.10;48.41
67980;BME280;54760;47.490;19.030;2023-04-01T12:20:26;98721.41;;;15.38;48.03
67980;BME280;54760;47.490;19.030;2023-04-01T12:31:06;98720.59;;;15.78;46.31
67980;BME280;54760;47.490;19.030;2023-04-01T12:36:48;98728.81;;;15.98;45.92
67980;BME280;54760;47.490;19.030;2023-04-01T12:47:32;98716.12;;;15.60;47.60
67980;BME280;54760;47.490;19.030;2023-04-01T12:50:23;98711.13;;;15.84;47.05
67980;BME280;54760;47.490;19.030;2023-04-01T12:58:19;98705.59;;;16.78;44.75
67980;BME280;54760;47.490;19.030;2023-04-01T13:08:52;98697.75;;;18.17;41.40
67980;BME280;54760;47.490;19.030;2023-04-01T13:19:41;98692.31;;;17.47;42.63
67980;BME280;54760;47.490;19.030;2023-04-01T13:22:15;98695.63;;;17.57;42.64
67980;BME280;54760;47.490;19.030;2023-04-01T13:24:49;98705.44;;;16.93;43.36
67980;BME280;54760;47.490;19.030;2023-04-01T13:54:57;98721.75;;;16.85;44.08
67980;BME280;54760;47.490;19.030;2023-04-01T14:04:27;98722.91;;;16.11;44.51
67980;BME280;54760;47.490;19.030;2023-04-01T14:12:13;98739.59;;;16.27;45.69
67980;BME280;54760;47.490;19.030;2023-04-01T14:15:00;98728.31;;;15.99;46.45
67980;BME280;54760;47.490;19.030;2023-04-01T14:20:16;98733.03;;;15.27;48.66
67980;BME280;54760;47.490;19.030;2023-04-01T14:29:02;98722.00;;;15.27;48.56
67980;BME280;54760;47.490;19.030;2023-04-01T14:34:59;98715.13;;;15.37;47.53
67980;BME280;54760;47.490;19.030;2023-04-01T14:37:58;98719.41;;;15.18;48.12
67980;BME280;54760;47.490;19.030;2023-04-01T14:49:04;98716.72;;;16.53;45.33
67980;BME280;54760;47.490;19.030;2023-04-01T14:51:39;98707.38;;;16.76;44.52
67980;BME280;54760;47.490;19.030;2023-04-01T14:54:13;98706.13;;;17.42;43.16
67980;BME280;54760;47.490;19.030;2023-04-01T14:56:50;98709.28;;;17.94;41.98
67980;BME280;54760;47.490;19.030;2023-04-01T15:10:10;98708.03;;;16.65;44.97
67980;BME280;54760;47.490;19.030;2023-04-01T15:15:32;98705.56;;;16.36;45.87
67980;BME280;54760;47.490;19.030;2023-04-01T15:18:08;98712.69;;;16.17;46.60
67980;BME280;54760;47.490;19.030;2023-04-01T15:21:09;98717.56;;;16.01;47.44
67980;BME280;54760;47.490;19.030;2023-04-01T15:23:49;98715.94;;;15.89;47.82
67980;BME280;54760;47.490;19.030;2023-04-01T15:34:35;98717.44;;;16.16;47.94
67980;BME280;54760;47.490;19.030;2023-04-01T15:37:12;98714.38;;;16.40;46.80
67980;BME280;54760;47.490;19.030;2023-04-01T15:45:38;98717.38;;;16.42;44.33
67980;BME280;54760;47.490;19.030;2023-04-01T15:48:32;98724.75;;;16.51;44.05
67980;BME280;54760;47.490;19.030;2023-04-01T15:51:26;98722.31;;;16.27;44.87
67980;BME280;54760;47.490;19.030;2023-04-01T15:54:22;98727.78;;;16.21;44.40
67980;BME280;54760;47.490;19.030;2023-04-01T15:56:52;98722.91;;;16.42;43.55
67980;BME280;54760;47.490;19.030;2023-04-01T16:15:37;98748.22;;;16.35;43.32
67980;BME280;54760;47.490;19.030;2023-04-01T16:18:24;98738.13;;;16.26;42.09
67980;BME280;54760;47.490;19.030;2023-04-01T16:21:07;98736.25;;;16.12;41.63
67980;BME280;54760;47.490;19.030;2023-04-01T16:23:58;98752.09;;;16.17;42.06
67980;BME280;54760;47.490;19.030;2023-04-01T16:26:38;98755.50;;;16.07;42.10
67980;BME280;54760;47.490;19.030;2023-04-01T16:31:55;98760.44;;;15.97;42.31
67980;BME280;54760;47.490;19.030;2023-04-01T16:34:43;98762.75;;;16.04;42.13
67980;BME280;54760;47.490;19.030;2023-04-01T16:37:15;98762.91;;;15.95;42.47
67980;BME280;54760;47.490;19.030;2023-04-01T16:42:56;98764.63;;;15.67;43.46
67980;BME280;54760;47.490;19.030;2023-04-01T16:48:14;98769.06;;;15.58;43.18
67980;BME280;54760;47.490;19.030;2023-04-01T16:50:48;98773.41;;;15.50;43.11
67980;BME280;54760;47.490;19.030;2023-04-01T16:53:25;98770.12;;;15.46;43.25
67980;BME280;54760;47.490;19.030;2023-04-01T16:56:04;98777.41;;;15.49;43.21
67980;BME280;54760;47.490;19.030;2023-04-01T16:59:21;98782.56;;;15.56;43.37
67980;BME280;54760;47.490;19.030;2023-04-01T17:01:26;98779.22;;;15.32;44.17
67980;BME280;54760;47.490;19.030;2023-04-01T17:09:23;98780.69;;;15.68;43.82
67980;BME280;54760;47.490;19.030;2023-04-01T17:14:59;98788.87;;;15.22;44.87
67980;BME280;54760;47.490;19.030;2023-04-01T17:18:01;98785.59;;;15.03;45.53
67980;BME280;54760;47.490;19.030;2023-04-01T17:20:42;98796.09;;;14.85;46.22
67980;BME280;54760;47.490;19.030;2023-04-01T17:28:20;98806.00;;;15.11;45.45
67980;BME280;54760;47.490;19.030;2023-04-01T17:33:29;98809.88;;;14.85;46.38
67980;BME280;54760;47.490;19.030;2023-04-01T17:49:37;98817.75;;;14.92;49.46
67980;BME280;54760;47.490;19.030;2023-04-01T18:06:04;98849.00;;;14.30;49.95
67980;BME280;54760;47.490;19.030;2023-04-01T18:11:35;98847.00;;;14.16;50.66
67980;BME280;54760;47.490;19.030;2023-04-01T18:22:28;98862.12;;;14.50;50.98
67980;BME280;54760;47.490;19.030;2023-04-01T18:25:12;98864.09;;;14.35;53.00
67980;BME280;54760;47.490;19.030;2023-04-01T18:27:43;98869.75;;;14.02;52.34
67980;BME280;54760;47.490;19.030;2023-04-01T18:30:28;98866.53;;;14.18;51.73
67980;BME280;54760;47.490;19.030;2023-04-01T18:33:09;98882.31;;;14.32;53.84
67980;BME280;54760;47.490;19.030;2023-04-01T18:38:13;98880.37;;;14.09;52.55
67980;BME280;54760;47.490;19.030;2023-04-01T18:40:50;98885.53;;;14.16;52.26
67980;BME280;54760;47.490;19.030;2023-04-01T18:43:30;98886.06;;;14.05;52.01
67980;BME280;54760;47.490;19.030;2023-04-01T18:49:10;98888.41;;;13.98;52.51
67980;BME280;54760;47.490;19.030;2023-04-01T18:51:51;98895.37;;;13.60;53.49
67980;BME280;54760;47.490;19.030;2023-04-01T18:54:41;98894.91;;;13.85;53.41
67980;BME280;54760;47.490;19.030;2023-04-01T18:57:12;98891.41;;;13.85;52.50
67980;BME280;54760;47.490;19.030;2023-04-01T18:59:51;98896.25;;;13.90;52.44
67980;BME280;54760;47.490;19.030;2023-04-01T19:02:25;98899.03;;;13.66;52.65
67980;BME280;54760;47.490;19.030;2023-04-01T19:05:04;98903.37;;;13.49;53.28
67980;BME280;54760;47.490;19.030;2023-04-01T19:13:16;98902.56;;;13.34;55.61
67980;BME280;54760;47.490;19.030;2023-04-01T19:16:24;98899.03;;;13.66;53.96
67980;BME280;54760;47.490;19.030;2023-04-01T19:27:42;98905.06;;;13.23;55.45
67980;BME280;54760;47.490;19.030;2023-04-01T19:35:54;98903.78;;;13.33;55.79
67980;BME280;54760;47.490;19.030;2023-04-01T19:41:32;98900.81;;;13.45;55.47
67980;BME280;54760;47.490;19.030;2023-04-01T19:46:48;98917.19;;;13.40;55.56
67980;BME280;54760;47.490;19.030;2023-04-01T19:52:09;98915.09;;;13.26;55.50
67980;BME280;54760;47.490;19.030;2023-04-01T20:02:33;98918.56;;;13.35;56.98
67980;BME280;54760;47.490;19.030;2023-04-01T20:08:25;98928.34;;;12.94;57.30
67980;BME280;54760;47.490;19.030;2023-04-01T20:16:57;98929.19;;;13.19;57.05
67980;BME280;54760;47.490;19.030;2023-04-01T20:19:37;98928.34;;;12.85;58.20
67980;BME280;54760;47.490;19.030;2023-04-01T20:22:20;98930.47;;;12.99;57.63
67980;BME280;54760;47.490;19.030;2023-04-01T20:24:51;98923.53;;;13.22;57.79
67980;BME280;54760;47.490;19.030;2023-04-01T20:27:22;98930.19;;;12.88;58.37
67980;BME280;54760;47.490;19.030;2023-04-01T20:40:41;98923.16;;;12.87;58.73
67980;BME280;54760;47.490;19.030;2023-04-01T20:45:56;98935.66;;;12.88;59.86
67980;BME280;54760;47.490;19.030;2023-04-01T20:51:15;98942.44;;;12.60;59.32
67980;BME280;54760;47.490;19.030;2023-04-01T21:08:00;98958.91;;;12.33;60.30
67980;BME280;54760;47.490;19.030;2023-04-01T21:10:43;98955.25;;;12.54;60.37
67980;BME280;54760;47.490;19.030;2023-04-01T21:18:59;98959.22;;;12.26;61.66
67980;BME280;54760;47.490;19.030;2023-04-01T21:32:43;98973.84;;;12.23;62.21
67980;BME280;54760;47.490;19.030;2023-04-01T21:35:27;98963.72;;;11.83;63.89
67980;BME280;54760;47.490;19.030;2023-04-01T21:38:04;98977.31;;;11.96;63.29
67980;BME280;54760;47.490;19.030;2023-04-01T22:11:25;98963.78;;;12.20;57.68
67980;BME280;54760;47.490;19.030;2023-04-01T22:22:27;98976.56;;;11.95;58.73
67980;BME280;54760;47.490;19.030;2023-04-01T22:27:55;98980.81;;;11.87;59.18
67980;BME280;54760;47.490;19.030;2023-04-01T22:30:26;98989.06;;;11.96;59.17
67980;BME280;54760;47.490;19.030;2023-04-01T22:33:05;98985.06;;;11.97;59.07
67980;BME280;54760;47.490;19.030;2023-04-01T22:47:24;99007.12;;;11.76;60.69
67980;BME280;54760;47.490;19.030;2023-04-01T22:55:00;99017.50;;;11.50;61.35
67980;BME280;54760;47.490;19.030;2023-04-01T22:57:42;99013.62;;;11.69;60.90
67980;BME280;54760;47.490;19.030;2023-04-01T23:05:54;99027.56;;;11.53;61.61
67980;BME280;54760;47.490;19.030;2023-04-01T23:11:16;99033.91;;;11.41;62.16
67980;BME280;54760;47.490;19.030;2023-04-01T23:14:01;99039.56;;;11.46;62.07
67980;BME280;54760;47.490;19.030;2023-04-01T23:16:38;99032.41;;;11.49;62.07
67980;BME280;54760;47.490;19.030;2023-04-01T23:19:24;99043.88;;;11.56;61.85